Current Weather

Gratiot Community

Alma, Michigan (KAMN)

Report from: Tuesday, April 23, 2024 4:35 AM EDT
Current time: Tuesday, April 23, 2024 4:45 AM EDT

Nearby weather – Weather history – Daily summaries
Weather forecast

Present weatherLight rain
Temperature11.0°C (51.8°F)
Dew point-0.9°C (30.4°F)
Winds 7 kts (3.6 m/s, 8.1 mph) South (180°)
Visibility10 mi. (16.1 km)
Clouds Ceiling: Broken clouds 7,000 ft. (2,134 m)
Overcast 9,000 ft. (2,743 m)
Altimeter29.80 in.Hg (1009 mB)
Relative humidity44 %
Density altitude-248 ft. (-76 m)
Remarks Fully automated report
Automated weather observing station with precipitation discriminator
Flight conditions Visual Meteorological Conditions
Raw dataKAMN 230835Z AUTO 18007KT 10SM -RA BKN070 OVC090 11/M01 A2980 RMK AO2 T01101009
An error has occurred. This application may no longer respond until reloaded. Reload 🗙